sensor_id;sensor_type;location;lat;lon;timestamp;P1;durP1;ratioP1;P2;durP2;ratioP2
4808;SDS011;2418;49.930;8.606;2022-07-11T00:02:25;7.15;;;4.40;;
4808;SDS011;2418;49.930;8.606;2022-07-11T00:04:51;4.47;;;4.07;;
4808;SDS011;2418;49.930;8.606;2022-07-11T00:07:17;5.50;;;4.55;;
4808;SDS011;2418;49.930;8.606;2022-07-11T00:09:43;4.40;;;4.20;;
4808;SDS011;2418;49.930;8.606;2022-07-11T00:12:09;4.95;;;4.65;;
4808;SDS011;2418;49.930;8.606;2022-07-11T00:14:35;5.13;;;4.63;;
4808;SDS011;2418;49.930;8.606;2022-07-11T00:17:04;4.80;;;4.40;;
4808;SDS011;2418;49.930;8.606;2022-07-11T00:19:30;6.97;;;4.60;;
4808;SDS011;2418;49.930;8.606;2022-07-11T00:21:56;4.80;;;4.30;;
4808;SDS011;2418;49.930;8.606;2022-07-11T00:24:23;4.53;;;4.13;;
4808;SDS011;2418;49.930;8.606;2022-07-11T00:26:50;4.47;;;4.18;;
4808;SDS011;2418;49.930;8.606;2022-07-11T00:29:16;8.30;;;4.63;;
4808;SDS011;2418;49.930;8.606;2022-07-11T00:31:42;4.68;;;4.47;;
4808;SDS011;2418;49.930;8.606;2022-07-11T00:34:08;8.47;;;4.87;;
4808;SDS011;2418;49.930;8.606;2022-07-11T00:36:33;4.73;;;4.43;;
4808;SDS011;2418;49.930;8.606;2022-07-11T00:38:59;4.90;;;4.40;;
4808;SDS011;2418;49.930;8.606;2022-07-11T00:41:26;5.17;;;4.77;;
4808;SDS011;2418;49.930;8.606;2022-07-11T00:43:56;6.53;;;4.50;;
4808;SDS011;2418;49.930;8.606;2022-07-11T00:46:23;4.95;;;4.60;;
4808;SDS011;2418;49.930;8.606;2022-07-11T00:48:49;5.00;;;4.70;;
4808;SDS011;2418;49.930;8.606;2022-07-11T00:51:17;4.80;;;4.43;;
4808;SDS011;2418;49.930;8.606;2022-07-11T00:53:45;5.35;;;4.90;;
4808;SDS011;2418;49.930;8.606;2022-07-11T00:56:13;5.20;;;4.93;;
4808;SDS011;2418;49.930;8.606;2022-07-11T00:58:39;5.00;;;4.60;;
4808;SDS011;2418;49.930;8.606;2022-07-11T01:01:05;4.97;;;4.72;;
4808;SDS011;2418;49.930;8.606;2022-07-11T01:03:33;6.07;;;5.38;;
4808;SDS011;2418;49.930;8.606;2022-07-11T01:05:59;5.72;;;5.20;;
4808;SDS011;2418;49.930;8.606;2022-07-11T01:08:25;5.00;;;4.50;;
4808;SDS011;2418;49.930;8.606;2022-07-11T01:10:56;4.78;;;4.50;;
4808;SDS011;2418;49.930;8.606;2022-07-11T01:13:22;5.50;;;5.00;;
4808;SDS011;2418;49.930;8.606;2022-07-11T01:15:48;5.23;;;4.83;;
4808;SDS011;2418;49.930;8.606;2022-07-11T01:18:14;5.00;;;4.70;;
4808;SDS011;2418;49.930;8.606;2022-07-11T01:20:40;5.63;;;5.03;;
4808;SDS011;2418;49.930;8.606;2022-07-11T01:23:06;5.30;;;4.90;;
4808;SDS011;2418;49.930;8.606;2022-07-11T01:25:31;4.80;;;4.40;;
4808;SDS011;2418;49.930;8.606;2022-07-11T01:28:00;4.60;;;4.40;;
4808;SDS011;2418;49.930;8.606;2022-07-11T01:30:27;6.65;;;4.40;;
4808;SDS011;2418;49.930;8.606;2022-07-11T01:32:54;5.00;;;4.70;;
4808;SDS011;2418;49.930;8.606;2022-07-11T01:35:20;5.30;;;4.90;;
4808;SDS011;2418;49.930;8.606;2022-07-11T01:37:46;5.00;;;4.70;;
4808;SDS011;2418;49.930;8.606;2022-07-11T01:40:13;5.18;;;4.68;;
4808;SDS011;2418;49.930;8.606;2022-07-11T01:42:39;5.75;;;5.25;;
4808;SDS011;2418;49.930;8.606;2022-07-11T01:45:05;5.60;;;5.20;;
4808;SDS011;2418;49.930;8.606;2022-07-11T01:47:31;4.97;;;4.78;;
4808;SDS011;2418;49.930;8.606;2022-07-11T01:49:57;8.00;;;5.10;;
4808;SDS011;2418;49.930;8.606;2022-07-11T01:52:23;5.60;;;5.10;;
4808;SDS011;2418;49.930;8.606;2022-07-11T01:54:49;5.70;;;5.30;;
4808;SDS011;2418;49.930;8.606;2022-07-11T01:57:15;5.30;;;4.63;;
4808;SDS011;2418;49.930;8.606;2022-07-11T01:59:41;5.20;;;4.80;;
4808;SDS011;2418;49.930;8.606;2022-07-11T02:02:07;5.43;;;5.00;;
4808;SDS011;2418;49.930;8.606;2022-07-11T02:04:33;5.10;;;4.83;;
4808;SDS011;2418;49.930;8.606;2022-07-11T02:06:59;6.00;;;5.57;;
4808;SDS011;2418;49.930;8.606;2022-07-11T02:09:25;6.72;;;6.13;;
4808;SDS011;2418;49.930;8.606;2022-07-11T02:11:51;6.18;;;5.55;;
4808;SDS011;2418;49.930;8.606;2022-07-11T02:14:17;6.50;;;5.13;;
4808;SDS011;2418;49.930;8.606;2022-07-11T02:16:43;5.60;;;5.20;;
4808;SDS011;2418;49.930;8.606;2022-07-11T02:19:09;5.80;;;5.35;;
4808;SDS011;2418;49.930;8.606;2022-07-11T02:21:35;6.22;;;5.30;;
4808;SDS011;2418;49.930;8.606;2022-07-11T02:24:02;5.20;;;4.90;;
4808;SDS011;2418;49.930;8.606;2022-07-11T02:26:28;6.00;;;5.13;;
4808;SDS011;2418;49.930;8.606;2022-07-11T02:28:54;7.38;;;5.45;;
4808;SDS011;2418;49.930;8.606;2022-07-11T02:31:20;6.10;;;5.15;;
4808;SDS011;2418;49.930;8.606;2022-07-11T02:33:46;6.00;;;4.82;;
4808;SDS011;2418;49.930;8.606;2022-07-11T02:36:12;6.07;;;5.20;;
4808;SDS011;2418;49.930;8.606;2022-07-11T02:38:38;5.30;;;4.90;;
4808;SDS011;2418;49.930;8.606;2022-07-11T02:41:04;5.75;;;5.35;;
4808;SDS011;2418;49.930;8.606;2022-07-11T02:43:30;6.28;;;5.68;;
4808;SDS011;2418;49.930;8.606;2022-07-11T02:45:55;6.20;;;5.80;;
4808;SDS011;2418;49.930;8.606;2022-07-11T02:48:21;6.38;;;5.90;;
4808;SDS011;2418;49.930;8.606;2022-07-11T02:50:47;6.17;;;5.67;;
4808;SDS011;2418;49.930;8.606;2022-07-11T02:53:13;5.60;;;5.30;;
4808;SDS011;2418;49.930;8.606;2022-07-11T02:55:39;5.70;;;5.10;;
4808;SDS011;2418;49.930;8.606;2022-07-11T02:58:05;9.52;;;5.80;;
4808;SDS011;2418;49.930;8.606;2022-07-11T03:00:31;5.97;;;5.63;;
4808;SDS011;2418;49.930;8.606;2022-07-11T03:02:57;6.05;;;5.55;;
4808;SDS011;2418;49.930;8.606;2022-07-11T03:05:23;7.10;;;6.20;;
4808;SDS011;2418;49.930;8.606;2022-07-11T03:07:49;6.70;;;6.00;;
4808;SDS011;2418;49.930;8.606;2022-07-11T03:10:15;6.70;;;6.10;;
4808;SDS011;2418;49.930;8.606;2022-07-11T03:12:41;6.30;;;5.80;;
4808;SDS011;2418;49.930;8.606;2022-07-11T03:15:07;6.90;;;6.30;;
4808;SDS011;2418;49.930;8.606;2022-07-11T03:17:33;6.03;;;5.53;;
4808;SDS011;2418;49.930;8.606;2022-07-11T03:20:00;6.67;;;6.17;;
4808;SDS011;2418;49.930;8.606;2022-07-11T03:22:26;6.50;;;6.10;;
4808;SDS011;2418;49.930;8.606;2022-07-11T03:24:52;6.60;;;6.20;;
4808;SDS011;2418;49.930;8.606;2022-07-11T03:27:18;9.55;;;5.97;;
4808;SDS011;2418;49.930;8.606;2022-07-11T03:29:44;6.30;;;5.90;;
4808;SDS011;2418;49.930;8.606;2022-07-11T03:32:10;6.90;;;6.30;;
4808;SDS011;2418;49.930;8.606;2022-07-11T03:34:36;6.07;;;5.78;;
4808;SDS011;2418;49.930;8.606;2022-07-11T03:37:02;7.53;;;6.15;;
4808;SDS011;2418;49.930;8.606;2022-07-11T03:39:28;7.22;;;6.65;;
4808;SDS011;2418;49.930;8.606;2022-07-11T03:41:54;6.70;;;6.10;;
4808;SDS011;2418;49.930;8.606;2022-07-11T03:44:20;6.82;;;6.38;;
4808;SDS011;2418;49.930;8.606;2022-07-11T03:46:46;5.68;;;5.38;;
4808;SDS011;2418;49.930;8.606;2022-07-11T03:49:13;12.20;;;6.15;;
4808;SDS011;2418;49.930;8.606;2022-07-11T03:51:39;6.35;;;5.93;;
4808;SDS011;2418;49.930;8.606;2022-07-11T03:54:04;6.03;;;5.63;;
4808;SDS011;2418;49.930;8.606;2022-07-11T03:56:30;7.82;;;5.78;;
4808;SDS011;2418;49.930;8.606;2022-07-11T03:58:56;6.65;;;6.15;;
4808;SDS011;2418;49.930;8.606;2022-07-11T04:01:22;5.70;;;5.30;;
4808;SDS011;2418;49.930;8.606;2022-07-11T04:03:48;6.72;;;6.43;;
4808;SDS011;2418;49.930;8.606;2022-07-11T04:06:14;6.23;;;5.87;;
4808;SDS011;2418;49.930;8.606;2022-07-11T04:08:41;7.40;;;6.15;;
4808;SDS011;2418;49.930;8.606;2022-07-11T04:11:07;5.60;;;5.40;;
4808;SDS011;2418;49.930;8.606;2022-07-11T04:13:33;9.35;;;6.20;;
4808;SDS011;2418;49.930;8.606;2022-07-11T04:15:59;6.22;;;5.82;;
4808;SDS011;2418;49.930;8.606;2022-07-11T04:18:25;9.07;;;6.22;;
4808;SDS011;2418;49.930;8.606;2022-07-11T04:20:51;10.48;;;5.95;;
4808;SDS011;2418;49.930;8.606;2022-07-11T04:23:17;6.20;;;5.60;;
4808;SDS011;2418;49.930;8.606;2022-07-11T04:25:43;5.97;;;5.68;;
4808;SDS011;2418;49.930;8.606;2022-07-11T04:28:09;7.95;;;5.97;;
4808;SDS011;2418;49.930;8.606;2022-07-11T04:30:35;8.02;;;6.30;;
4808;SDS011;2418;49.930;8.606;2022-07-11T04:33:01;6.18;;;5.78;;
4808;SDS011;2418;49.930;8.606;2022-07-11T04:35:27;6.45;;;5.50;;
4808;SDS011;2418;49.930;8.606;2022-07-11T04:37:53;6.05;;;5.60;;
4808;SDS011;2418;49.930;8.606;2022-07-11T04:40:20;5.45;;;5.10;;
4808;SDS011;2418;49.930;8.606;2022-07-11T04:42:48;6.55;;;5.28;;
4808;SDS011;2418;49.930;8.606;2022-07-11T04:45:14;5.70;;;5.40;;
4808;SDS011;2418;49.930;8.606;2022-07-11T04:47:40;8.27;;;5.93;;
4808;SDS011;2418;49.930;8.606;2022-07-11T04:50:07;6.13;;;5.63;;
4808;SDS011;2418;49.930;8.606;2022-07-11T04:52:33;13.35;;;6.10;;
4808;SDS011;2418;49.930;8.606;2022-07-11T04:54:59;5.88;;;5.30;;
4808;SDS011;2418;49.930;8.606;2022-07-11T04:57:25;5.30;;;4.90;;
4808;SDS011;2418;49.930;8.606;2022-07-11T04:59:51;5.78;;;5.28;;
4808;SDS011;2418;49.930;8.606;2022-07-11T05:02:17;6.90;;;5.55;;
4808;SDS011;2418;49.930;8.606;2022-07-11T05:04:44;5.72;;;5.32;;
4808;SDS011;2418;49.930;8.606;2022-07-11T05:07:10;5.93;;;5.43;;
4808;SDS011;2418;49.930;8.606;2022-07-11T05:09:38;5.75;;;5.35;;
4808;SDS011;2418;49.930;8.606;2022-07-11T05:12:04;5.50;;;5.00;;
4808;SDS011;2418;49.930;8.606;2022-07-11T05:14:31;6.20;;;5.50;;
4808;SDS011;2418;49.930;8.606;2022-07-11T05:16:57;5.50;;;5.10;;
4808;SDS011;2418;49.930;8.606;2022-07-11T05:19:23;5.97;;;5.47;;
4808;SDS011;2418;49.930;8.606;2022-07-11T05:21:49;6.00;;;5.40;;
4808;SDS011;2418;49.930;8.606;2022-07-11T05:24:15;5.00;;;4.60;;
4808;SDS011;2418;49.930;8.606;2022-07-11T05:26:43;5.65;;;5.10;;
4808;SDS011;2418;49.930;8.606;2022-07-11T05:29:09;4.82;;;4.63;;
4808;SDS011;2418;49.930;8.606;2022-07-11T05:31:35;4.80;;;4.40;;
4808;SDS011;2418;49.930;8.606;2022-07-11T05:34:00;6.80;;;5.10;;
4808;SDS011;2418;49.930;8.606;2022-07-11T05:36:26;6.10;;;5.30;;
4808;SDS011;2418;49.930;8.606;2022-07-11T05:38:52;5.60;;;5.15;;
4808;SDS011;2418;49.930;8.606;2022-07-11T05:41:20;5.25;;;4.57;;
4808;SDS011;2418;49.930;8.606;2022-07-11T05:43:46;5.00;;;4.50;;
4808;SDS011;2418;49.930;8.606;2022-07-11T05:46:12;5.00;;;4.60;;
4808;SDS011;2418;49.930;8.606;2022-07-11T05:48:38;5.28;;;4.72;;
4808;SDS011;2418;49.930;8.606;2022-07-11T05:51:04;6.97;;;4.32;;
4808;SDS011;2418;49.930;8.606;2022-07-11T05:53:30;4.60;;;4.20;;
4808;SDS011;2418;49.930;8.606;2022-07-11T05:55:57;4.60;;;4.30;;
4808;SDS011;2418;49.930;8.606;2022-07-11T05:58:23;4.25;;;4.10;;
4808;SDS011;2418;49.930;8.606;2022-07-11T06:00:50;4.30;;;3.90;;
4808;SDS011;2418;49.930;8.606;2022-07-11T06:03:15;4.35;;;3.95;;
4808;SDS011;2418;49.930;8.606;2022-07-11T06:05:42;4.03;;;3.72;;
4808;SDS011;2418;49.930;8.606;2022-07-11T06:08:08;4.10;;;3.90;;
4808;SDS011;2418;49.930;8.606;2022-07-11T06:10:52;5.90;;;3.50;;
4808;SDS011;2418;49.930;8.606;2022-07-11T06:13:18;6.40;;;3.47;;
4808;SDS011;2418;49.930;8.606;2022-07-11T06:15:44;5.50;;;3.95;;
4808;SDS011;2418;49.930;8.606;2022-07-11T06:18:12;4.40;;;3.70;;
4808;SDS011;2418;49.930;8.606;2022-07-11T06:20:38;3.67;;;3.33;;
4808;SDS011;2418;49.930;8.606;2022-07-11T06:23:03;3.27;;;3.07;;
4808;SDS011;2418;49.930;8.606;2022-07-11T06:25:31;3.47;;;3.17;;
4808;SDS011;2418;49.930;8.606;2022-07-11T06:27:57;4.05;;;3.65;;
4808;SDS011;2418;49.930;8.606;2022-07-11T06:30:23;6.20;;;3.75;;
4808;SDS011;2418;49.930;8.606;2022-07-11T06:32:49;6.30;;;3.70;;
4808;SDS011;2418;49.930;8.606;2022-07-11T06:35:15;5.45;;;3.90;;
4808;SDS011;2418;49.930;8.606;2022-07-11T06:37:41;4.30;;;3.40;;
4808;SDS011;2418;49.930;8.606;2022-07-11T06:40:07;4.40;;;3.60;;
4808;SDS011;2418;49.930;8.606;2022-07-11T06:42:36;4.40;;;3.87;;
4808;SDS011;2418;49.930;8.606;2022-07-11T06:45:02;6.32;;;3.75;;
4808;SDS011;2418;49.930;8.606;2022-07-11T06:47:28;3.92;;;3.30;;
4808;SDS011;2418;49.930;8.606;2022-07-11T06:49:54;7.90;;;3.67;;
4808;SDS011;2418;49.930;8.606;2022-07-11T06:52:20;3.95;;;3.63;;
4808;SDS011;2418;49.930;8.606;2022-07-11T06:54:45;5.88;;;3.50;;
4808;SDS011;2418;49.930;8.606;2022-07-11T06:57:11;6.10;;;3.40;;
4808;SDS011;2418;49.930;8.606;2022-07-11T06:59:37;3.10;;;2.90;;
4808;SDS011;2418;49.930;8.606;2022-07-11T07:02:03;3.80;;;3.20;;
4808;SDS011;2418;49.930;8.606;2022-07-11T07:04:29;3.40;;;3.10;;
4808;SDS011;2418;49.930;8.606;2022-07-11T07:06:55;5.00;;;3.40;;
4808;SDS011;2418;49.930;8.606;2022-07-11T07:09:21;4.03;;;3.72;;
4808;SDS011;2418;49.930;8.606;2022-07-11T07:11:47;4.40;;;4.00;;
4808;SDS011;2418;49.930;8.606;2022-07-11T07:14:13;4.43;;;4.10;;
4808;SDS011;2418;49.930;8.606;2022-07-11T07:16:39;4.80;;;3.70;;
4808;SDS011;2418;49.930;8.606;2022-07-11T07:19:05;5.75;;;3.58;;
4808;SDS011;2418;49.930;8.606;2022-07-11T07:21:30;4.80;;;3.70;;
4808;SDS011;2418;49.930;8.606;2022-07-11T07:23:56;7.87;;;3.10;;
4808;SDS011;2418;49.930;8.606;2022-07-11T07:26:22;3.75;;;2.60;;
4808;SDS011;2418;49.930;8.606;2022-07-11T07:28:49;5.47;;;3.30;;
4808;SDS011;2418;49.930;8.606;2022-07-11T07:31:15;11.50;;;3.63;;
4808;SDS011;2418;49.930;8.606;2022-07-11T07:33:41;3.80;;;3.10;;
4808;SDS011;2418;49.930;8.606;2022-07-11T07:36:07;4.30;;;3.10;;
4808;SDS011;2418;49.930;8.606;2022-07-11T07:38:33;4.80;;;3.30;;
4808;SDS011;2418;49.930;8.606;2022-07-11T07:40:59;3.10;;;3.00;;
4808;SDS011;2418;49.930;8.606;2022-07-11T07:43:25;3.50;;;2.40;;
4808;SDS011;2418;49.930;8.606;2022-07-11T07:45:51;3.60;;;2.90;;
4808;SDS011;2418;49.930;8.606;2022-07-11T07:48:17;3.13;;;3.03;;
4808;SDS011;2418;49.930;8.606;2022-07-11T07:50:43;2.92;;;2.83;;
4808;SDS011;2418;49.930;8.606;2022-07-11T07:53:08;3.30;;;3.10;;
4808;SDS011;2418;49.930;8.606;2022-07-11T07:55:34;2.92;;;2.72;;
4808;SDS011;2418;49.930;8.606;2022-07-11T07:58:00;3.70;;;2.70;;
4808;SDS011;2418;49.930;8.606;2022-07-11T08:00:26;4.93;;;2.80;;
4808;SDS011;2418;49.930;8.606;2022-07-11T08:03:11;2.88;;;2.67;;
4808;SDS011;2418;49.930;8.606;2022-07-11T08:05:37;2.97;;;2.70;;
4808;SDS011;2418;49.930;8.606;2022-07-11T08:08:02;3.90;;;2.72;;
4808;SDS011;2418;49.930;8.606;2022-07-11T08:10:29;2.60;;;2.50;;
4808;SDS011;2418;49.930;8.606;2022-07-11T08:12:55;4.28;;;2.60;;
4808;SDS011;2418;49.930;8.606;2022-07-11T08:15:21;3.10;;;2.40;;
4808;SDS011;2418;49.930;8.606;2022-07-11T08:17:47;3.00;;;2.50;;
4808;SDS011;2418;49.930;8.606;2022-07-11T08:20:13;2.80;;;2.60;;
4808;SDS011;2418;49.930;8.606;2022-07-11T08:22:39;2.60;;;2.40;;
4808;SDS011;2418;49.930;8.606;2022-07-11T08:25:05;2.60;;;2.40;;
4808;SDS011;2418;49.930;8.606;2022-07-11T08:27:31;5.70;;;2.60;;
4808;SDS011;2418;49.930;8.606;2022-07-11T08:29:58;2.67;;;2.40;;
4808;SDS011;2418;49.930;8.606;2022-07-11T08:32:24;2.72;;;2.53;;
4808;SDS011;2418;49.930;8.606;2022-07-11T08:34:50;5.00;;;2.80;;
4808;SDS011;2418;49.930;8.606;2022-07-11T08:37:16;4.40;;;2.83;;
4808;SDS011;2418;49.930;8.606;2022-07-11T08:39:41;3.27;;;2.53;;
4808;SDS011;2418;49.930;8.606;2022-07-11T08:42:07;2.90;;;2.70;;
4808;SDS011;2418;49.930;8.606;2022-07-11T08:44:33;3.10;;;2.90;;
4808;SDS011;2418;49.930;8.606;2022-07-11T08:47:00;2.80;;;2.60;;
4808;SDS011;2418;49.930;8.606;2022-07-11T08:49:28;2.00;;;2.00;;
4808;SDS011;2418;49.930;8.606;2022-07-11T08:51:54;3.10;;;2.25;;
4808;SDS011;2418;49.930;8.606;2022-07-11T08:54:20;2.67;;;2.47;;
4808;SDS011;2418;49.930;8.606;2022-07-11T08:56:46;3.50;;;2.30;;
4808;SDS011;2418;49.930;8.606;2022-07-11T08:59:17;2.63;;;2.40;;
4808;SDS011;2418;49.930;8.606;2022-07-11T09:01:44;2.40;;;2.30;;
4808;SDS011;2418;49.930;8.606;2022-07-11T09:04:11;2.45;;;2.35;;
4808;SDS011;2418;49.930;8.606;2022-07-11T09:06:39;2.58;;;2.40;;
4808;SDS011;2418;49.930;8.606;2022-07-11T09:09:05;3.00;;;2.13;;
4808;SDS011;2418;49.930;8.606;2022-07-11T09:11:50;2.63;;;2.42;;
4808;SDS011;2418;49.930;8.606;2022-07-11T09:14:30;3.60;;;2.00;;
4808;SDS011;2418;49.930;8.606;2022-07-11T09:17:00;2.60;;;2.40;;
4808;SDS011;2418;49.930;8.606;2022-07-11T09:19:27;6.15;;;2.47;;
4808;SDS011;2418;49.930;8.606;2022-07-11T09:22:00;2.40;;;2.30;;
4808;SDS011;2418;49.930;8.606;2022-07-11T09:25:02;2.78;;;2.58;;
4808;SDS011;2418;49.930;8.606;2022-07-11T09:27:48;3.47;;;2.00;;
4808;SDS011;2418;49.930;8.606;2022-07-11T09:30:23;2.67;;;2.10;;
4808;SDS011;2418;49.930;8.606;2022-07-11T09:32:59;2.45;;;2.25;;
4808;SDS011;2418;49.930;8.606;2022-07-11T09:35:26;2.03;;;1.92;;
4808;SDS011;2418;49.930;8.606;2022-07-11T09:37:53;1.98;;;1.88;;
4808;SDS011;2418;49.930;8.606;2022-07-11T09:40:19;2.15;;;2.03;;
4808;SDS011;2418;49.930;8.606;2022-07-11T09:42:54;2.80;;;2.00;;
4808;SDS011;2418;49.930;8.606;2022-07-11T09:45:21;4.22;;;2.22;;
4808;SDS011;2418;49.930;8.606;2022-07-11T09:47:47;4.20;;;1.92;;
4808;SDS011;2418;49.930;8.606;2022-07-11T09:50:17;2.00;;;1.90;;
4808;SDS011;2418;49.930;8.606;2022-07-11T09:52:57;2.20;;;2.00;;
4808;SDS011;2418;49.930;8.606;2022-07-11T09:55:24;2.50;;;2.30;;
4808;SDS011;2418;49.930;8.606;2022-07-11T09:57:50;2.10;;;2.00;;
4808;SDS011;2418;49.930;8.606;2022-07-11T10:00:16;3.10;;;2.15;;
4808;SDS011;2418;49.930;8.606;2022-07-11T10:02:42;2.10;;;2.00;;
4808;SDS011;2418;49.930;8.606;2022-07-11T10:05:09;2.17;;;1.98;;
4808;SDS011;2418;49.930;8.606;2022-07-11T10:07:35;1.88;;;1.77;;
4808;SDS011;2418;49.930;8.606;2022-07-11T10:10:01;2.20;;;2.10;;
4808;SDS011;2418;49.930;8.606;2022-07-11T10:12:28;2.08;;;1.98;;
4808;SDS011;2418;49.930;8.606;2022-07-11T10:14:57;2.67;;;2.47;;
4808;SDS011;2418;49.930;8.606;2022-07-11T10:17:41;2.20;;;2.10;;
4808;SDS011;2418;49.930;8.606;2022-07-11T10:20:23;2.65;;;2.00;;
4808;SDS011;2418;49.930;8.606;2022-07-11T10:28:06;5.07;;;2.25;;
4808;SDS011;2418;49.930;8.606;2022-07-11T10:30:47;2.13;;;2.00;;
4808;SDS011;2418;49.930;8.606;2022-07-11T10:33:14;2.83;;;2.10;;
4808;SDS011;2418;49.930;8.606;2022-07-11T10:35:41;2.00;;;1.90;;
4808;SDS011;2418;49.930;8.606;2022-07-11T10:38:07;3.10;;;2.00;;
4808;SDS011;2418;49.930;8.606;2022-07-11T10:40:40;2.00;;;1.90;;
4808;SDS011;2418;49.930;8.606;2022-07-11T10:43:07;2.30;;;2.20;;
4808;SDS011;2418;49.930;8.606;2022-07-11T10:45:49;3.10;;;2.28;;
4808;SDS011;2418;49.930;8.606;2022-07-11T10:48:15;3.40;;;1.80;;
4808;SDS011;2418;49.930;8.606;2022-07-11T10:50:41;1.80;;;1.60;;
4808;SDS011;2418;49.930;8.606;2022-07-11T10:53:09;1.60;;;1.60;;
4808;SDS011;2418;49.930;8.606;2022-07-11T10:55:37;1.67;;;1.58;;
4808;SDS011;2418;49.930;8.606;2022-07-11T11:00:31;1.90;;;1.80;;
4808;SDS011;2418;49.930;8.606;2022-07-11T11:02:59;3.00;;;2.10;;
4808;SDS011;2418;49.930;8.606;2022-07-11T11:13:46;1.50;;;1.50;;
4808;SDS011;2418;49.930;8.606;2022-07-11T11:16:18;1.90;;;1.80;;
4808;SDS011;2418;49.930;8.606;2022-07-11T11:18:45;2.53;;;2.42;;
4808;SDS011;2418;49.930;8.606;2022-07-11T11:23:38;2.10;;;2.00;;
4808;SDS011;2418;49.930;8.606;2022-07-11T11:26:07;1.70;;;1.70;;
4808;SDS011;2418;49.930;8.606;2022-07-11T11:28:34;2.30;;;2.20;;
4808;SDS011;2418;49.930;8.606;2022-07-11T11:31:01;1.67;;;1.50;;
4808;SDS011;2418;49.930;8.606;2022-07-11T11:33:28;2.10;;;1.80;;
4808;SDS011;2418;49.930;8.606;2022-07-11T11:36:05;1.80;;;1.70;;
4808;SDS011;2418;49.930;8.606;2022-07-11T11:38:34;1.60;;;1.60;;
4808;SDS011;2418;49.930;8.606;2022-07-11T11:41:00;1.70;;;1.60;;
4808;SDS011;2418;49.930;8.606;2022-07-11T11:43:26;1.80;;;1.70;;
4808;SDS011;2418;49.930;8.606;2022-07-11T11:45:53;1.88;;;1.67;;
4808;SDS011;2418;49.930;8.606;2022-07-11T11:48:26;3.53;;;1.98;;
4808;SDS011;2418;49.930;8.606;2022-07-11T11:50:52;2.50;;;1.70;;
4808;SDS011;2418;49.930;8.606;2022-07-11T11:53:18;1.70;;;1.60;;
4808;SDS011;2418;49.930;8.606;2022-07-11T11:55:44;1.67;;;1.58;;
4808;SDS011;2418;49.930;8.606;2022-07-11T11:58:10;1.80;;;1.70;;
4808;SDS011;2418;49.930;8.606;2022-07-11T12:00:37;1.38;;;1.38;;
4808;SDS011;2418;49.930;8.606;2022-07-11T12:03:02;1.50;;;1.50;;
4808;SDS011;2418;49.930;8.606;2022-07-11T12:05:28;2.73;;;2.10;;
4808;SDS011;2418;49.930;8.606;2022-07-11T12:07:54;2.00;;;1.90;;
4808;SDS011;2418;49.930;8.606;2022-07-11T12:10:20;2.30;;;1.60;;
4808;SDS011;2418;49.930;8.606;2022-07-11T12:12:46;1.80;;;1.80;;
4808;SDS011;2418;49.930;8.606;2022-07-11T12:15:27;3.70;;;1.60;;
4808;SDS011;2418;49.930;8.606;2022-07-11T12:17:55;1.40;;;1.40;;
4808;SDS011;2418;49.930;8.606;2022-07-11T12:20:34;1.92;;;1.92;;
4808;SDS011;2418;49.930;8.606;2022-07-11T12:23:00;5.80;;;2.20;;
4808;SDS011;2418;49.930;8.606;2022-07-11T12:25:29;2.10;;;2.00;;
4808;SDS011;2418;49.930;8.606;2022-07-11T12:27:55;2.20;;;1.80;;
4808;SDS011;2418;49.930;8.606;2022-07-11T12:30:22;2.08;;;1.98;;
4808;SDS011;2418;49.930;8.606;2022-07-11T12:33:01;1.63;;;1.63;;
4808;SDS011;2418;49.930;8.606;2022-07-11T12:35:27;2.30;;;2.10;;
4808;SDS011;2418;49.930;8.606;2022-07-11T12:37:54;2.17;;;2.00;;
4808;SDS011;2418;49.930;8.606;2022-07-11T12:40:20;1.90;;;1.70;;
4808;SDS011;2418;49.930;8.606;2022-07-11T12:42:46;2.40;;;1.40;;
4808;SDS011;2418;49.930;8.606;2022-07-11T12:45:12;2.05;;;1.95;;
4808;SDS011;2418;49.930;8.606;2022-07-11T12:47:41;2.22;;;1.60;;
4808;SDS011;2418;49.930;8.606;2022-07-11T12:52:40;1.95;;;1.85;;
4808;SDS011;2418;49.930;8.606;2022-07-11T12:55:07;2.50;;;2.10;;
4808;SDS011;2418;49.930;8.606;2022-07-11T12:57:36;1.80;;;1.80;;
4808;SDS011;2418;49.930;8.606;2022-07-11T13:00:22;1.60;;;1.60;;
4808;SDS011;2418;49.930;8.606;2022-07-11T13:02:48;1.77;;;1.67;;
4808;SDS011;2418;49.930;8.606;2022-07-11T13:05:15;1.80;;;1.70;;
4808;SDS011;2418;49.930;8.606;2022-07-11T13:07:41;1.70;;;1.60;;
4808;SDS011;2418;49.930;8.606;2022-07-11T13:10:27;3.70;;;1.80;;
4808;SDS011;2418;49.930;8.606;2022-07-11T13:13:11;2.10;;;2.00;;
4808;SDS011;2418;49.930;8.606;2022-07-11T13:15:37;3.37;;;1.57;;
4808;SDS011;2418;49.930;8.606;2022-07-11T13:18:03;1.97;;;1.60;;
4808;SDS011;2418;49.930;8.606;2022-07-11T13:20:30;1.70;;;1.60;;
4808;SDS011;2418;49.930;8.606;2022-07-11T13:22:57;1.80;;;1.70;;
4808;SDS011;2418;49.930;8.606;2022-07-11T13:25:24;1.50;;;1.50;;
4808;SDS011;2418;49.930;8.606;2022-07-11T13:27:50;1.45;;;1.35;;
4808;SDS011;2418;49.930;8.606;2022-07-11T13:30:17;2.20;;;1.90;;
4808;SDS011;2418;49.930;8.606;2022-07-11T13:32:46;1.48;;;1.48;;
4808;SDS011;2418;49.930;8.606;2022-07-11T13:35:12;2.20;;;1.80;;
4808;SDS011;2418;49.930;8.606;2022-07-11T13:37:39;1.67;;;1.67;;
4808;SDS011;2418;49.930;8.606;2022-07-11T13:40:09;2.07;;;1.97;;
4808;SDS011;2418;49.930;8.606;2022-07-11T13:42:36;3.00;;;1.92;;
4808;SDS011;2418;49.930;8.606;2022-07-11T13:45:02;1.55;;;1.55;;
4808;SDS011;2418;49.930;8.606;2022-07-11T13:47:29;1.50;;;1.40;;
4808;SDS011;2418;49.930;8.606;2022-07-11T13:49:55;1.50;;;1.40;;
4808;SDS011;2418;49.930;8.606;2022-07-11T13:52:21;2.10;;;1.60;;
4808;SDS011;2418;49.930;8.606;2022-07-11T13:54:47;1.70;;;1.60;;
4808;SDS011;2418;49.930;8.606;2022-07-11T13:57:13;1.70;;;1.60;;
4808;SDS011;2418;49.930;8.606;2022-07-11T13:59:39;2.90;;;1.30;;
4808;SDS011;2418;49.930;8.606;2022-07-11T14:02:05;1.50;;;1.50;;
4808;SDS011;2418;49.930;8.606;2022-07-11T14:04:31;2.80;;;1.70;;
4808;SDS011;2418;49.930;8.606;2022-07-11T14:06:57;2.00;;;1.50;;
4808;SDS011;2418;49.930;8.606;2022-07-11T14:09:24;4.30;;;2.20;;
4808;SDS011;2418;49.930;8.606;2022-07-11T14:11:50;1.60;;;1.50;;
4808;SDS011;2418;49.930;8.606;2022-07-11T14:14:17;1.70;;;1.50;;
4808;SDS011;2418;49.930;8.606;2022-07-11T14:16:43;2.10;;;1.57;;
4808;SDS011;2418;49.930;8.606;2022-07-11T14:19:09;1.87;;;1.80;;
4808;SDS011;2418;49.930;8.606;2022-07-11T14:21:39;2.40;;;2.20;;
4808;SDS011;2418;49.930;8.606;2022-07-11T14:24:05;2.40;;;1.80;;
4808;SDS011;2418;49.930;8.606;2022-07-11T14:26:34;2.40;;;2.30;;
4808;SDS011;2418;49.930;8.606;2022-07-11T14:29:01;2.78;;;1.80;;
4808;SDS011;2418;49.930;8.606;2022-07-11T14:31:27;2.00;;;1.90;;
4808;SDS011;2418;49.930;8.606;2022-07-11T14:33:54;2.33;;;2.00;;
4808;SDS011;2418;49.930;8.606;2022-07-11T14:36:20;2.60;;;1.90;;
4808;SDS011;2418;49.930;8.606;2022-07-11T14:38:47;2.00;;;1.75;;
4808;SDS011;2418;49.930;8.606;2022-07-11T14:41:13;2.22;;;2.03;;
4808;SDS011;2418;49.930;8.606;2022-07-11T14:43:41;1.90;;;1.80;;
4808;SDS011;2418;49.930;8.606;2022-07-11T14:46:07;2.10;;;2.00;;
4808;SDS011;2418;49.930;8.606;2022-07-11T14:48:33;2.50;;;1.67;;
4808;SDS011;2418;49.930;8.606;2022-07-11T14:51:00;1.50;;;1.42;;
4808;SDS011;2418;49.930;8.606;2022-07-11T14:53:26;1.90;;;1.50;;
4808;SDS011;2418;49.930;8.606;2022-07-11T14:55:52;2.00;;;1.90;;
4808;SDS011;2418;49.930;8.606;2022-07-11T14:58:20;1.30;;;1.30;;
4808;SDS011;2418;49.930;8.606;2022-07-11T15:00:46;1.40;;;1.30;;
4808;SDS011;2418;49.930;8.606;2022-07-11T15:03:12;1.60;;;1.60;;
4808;SDS011;2418;49.930;8.606;2022-07-11T15:05:57;1.40;;;1.40;;
4808;SDS011;2418;49.930;8.606;2022-07-11T15:08:24;2.40;;;1.50;;
4808;SDS011;2418;49.930;8.606;2022-07-11T15:11:09;1.40;;;1.40;;
4808;SDS011;2418;49.930;8.606;2022-07-11T15:14:07;1.20;;;1.20;;
4808;SDS011;2418;49.930;8.606;2022-07-11T15:16:34;1.38;;;1.38;;
4808;SDS011;2418;49.930;8.606;2022-07-11T15:19:00;5.40;;;1.58;;
4808;SDS011;2418;49.930;8.606;2022-07-11T15:21:27;1.15;;;1.15;;
4808;SDS011;2418;49.930;8.606;2022-07-11T15:23:53;2.60;;;1.10;;
4808;SDS011;2418;49.930;8.606;2022-07-11T15:26:20;2.40;;;1.30;;
4808;SDS011;2418;49.930;8.606;2022-07-11T15:28:46;1.17;;;1.17;;
4808;SDS011;2418;49.930;8.606;2022-07-11T15:31:12;2.17;;;1.20;;
4808;SDS011;2418;49.930;8.606;2022-07-11T15:33:42;3.47;;;1.15;;
4808;SDS011;2418;49.930;8.606;2022-07-11T15:36:12;1.30;;;1.30;;
4808;SDS011;2418;49.930;8.606;2022-07-11T15:38:38;1.20;;;1.20;;